Time;durP1;ratioP1;P1;durP2;ratioP2;P2;SDS_P1;SDS_P2;PMS_P1;PMS_P2;Temp;Humidity;BMP_temperature;BMP_pressure;BME280_temperature;BME280_humidity;BME280_pressure;Samples;Min_cycle;Max_cycle;Signal;HPM_P1;HPM_P2
2023/11/10 00:01:36;;;;;;;;;;;;;;;;;;5033724;28;19928;-52
2023/11/10 00:04:04;;;;;;;;;;;;;;;;;;5034747;28;19960;-54
2023/11/10 00:06:31;;;;;;;;;;;;;;;;;;5034832;28;19921;-56
2023/11/10 00:08:59;;;;;;;;;;;;;;;;;;5035042;28;19928;-56
2023/11/10 00:11:26;;;;;;;;;;;;;;;;;;5034975;28;19983;-56
2023/11/10 00:13:53;;;;;;;;;;;;;;;;;;5035065;28;20005;-53
2023/11/10 00:16:20;;;;;;;;;;;;;;;;;;5032400;28;19924;-58
2023/11/10 00:18:46;;;;;;;;;;;;;;;;;;5034563;28;19963;-55
2023/11/10 00:21:19;;;;;;;;;;;;;;;;;;5034995;28;19960;-56
2023/11/10 00:23:45;;;;;;;;;;;;;;;;;;5034605;28;19925;-56
2023/11/10 00:26:20;;;;;;;;;;;;;;;;;;5030231;28;19968;-58
2023/11/10 00:28:46;;;;;;;;;;;;;;;;;;5034744;28;19921;-56
2023/11/10 00:31:13;;;;;;;;;;;;;;;;;;5034442;28;19927;-56
2023/11/10 00:33:39;;;;;;;;;;;;;;;;;;5034300;28;20004;-56
2023/11/10 00:36:06;;;;;;;;;;;;;;;;;;5034583;28;19920;-57
2023/11/10 00:38:33;;;;;;;;;;;;;;;;;;5034963;28;19971;-55
2023/11/10 00:40:59;;;;;;;;;;;;;;;;;;5034546;28;19968;-54
2023/11/10 00:43:27;;;;;;;;;;;;;;;;;;5034400;28;19921;-56
2023/11/10 00:45:54;;;;;;;;;;;;;;;;;;5033960;28;19967;-54
2023/11/10 00:48:21;;;;;;;;;;;;;;;;;;5034495;28;19920;-54
2023/11/10 00:50:47;;;;;;;;;;;;;;;;;;5034375;28;20012;-53
2023/11/10 00:53:14;;;;;;;;;;;;;;;;;;5034271;28;19921;-53
2023/11/10 00:55:40;;;;;;;;;;;;;;;;;;5034304;28;20388;-53
2023/11/10 00:58:07;;;;;;;;;;;;;;;;;;5034042;28;19972;-52
2023/11/10 01:00:35;;;;;;;;;;;;;;;;;;5034048;28;20427;-53
2023/11/10 01:03:03;;;;;;;;;;;;;;;;;;5034152;28;20341;-56
2023/11/10 01:05:29;;;;;;;;;;;;;;;;;;5033986;28;19921;-56
2023/11/10 01:07:56;;;;;;;;;;;;;;;;;;5033885;28;19931;-56
2023/11/10 01:10:22;;;;;;;;;;;;;;;;;;5034080;28;19927;-54
2023/11/10 01:12:49;;;;;;;;;;;;;;;;;;5033711;28;20337;-52
2023/11/10 01:15:15;;;;;;;;;;;;;;;;;;5033582;28;20296;-54
2023/11/10 01:17:44;;;;;;;;;;;;;;;;;;5033277;28;19921;-55
2023/11/10 01:20:11;;;;;;;;;;;;;;;;;;5033821;28;19928;-55
2023/11/10 01:22:38;;;;;;;;;;;;;;;;;;5034006;28;20016;-55
2023/11/10 01:25:05;;;;;;;;;;;;;;;;;;5034086;28;20321;-54
2023/11/10 01:27:31;;;;;;;;;;;;;;;;;;5033862;28;20361;-55
2023/11/10 01:29:58;;;;;;;;;;;;;;;;;;5033978;28;19943;-55
2023/11/10 01:32:24;;;;;;;;;;;;;;;;;;5033765;28;19921;-55
2023/11/10 01:34:54;;;;;;;;;;;;;;;;;;5034402;28;19979;-52
2023/11/10 01:37:21;;;;;;;;;;;;;;;;;;5033662;28;19921;-55
2023/11/10 01:39:46;;;;;;;;;;;;;;;;;;5033745;28;19921;-57
2023/11/10 01:42:13;;;;;;;;;;;;;;;;;;5033454;28;20433;-56
2023/11/10 01:44:39;;;;;;;;;;;;;;;;;;5032929;28;19964;-56
2023/11/10 01:47:06;;;;;;;;;;;;;;;;;;5033343;28;20376;-54
2023/11/10 01:49:34;;;;;;;;;;;;;;;;;;5033180;28;19921;-55
2023/11/10 01:52:02;;;;;;;;;;;;;;;;;;5033048;28;19986;-56
2023/11/10 01:54:34;;;;;;;;;;;;;;;;;;5032746;28;19927;-53
2023/11/10 01:57:01;;;;;;;;;;;;;;;;;;5032798;28;19921;-57
2023/11/10 01:59:28;;;;;;;;;;;;;;;;;;5032721;28;19975;-55
2023/11/10 02:01:55;;;;;;;;;;;;;;;;;;5033269;28;19921;-56
2023/11/10 02:04:21;;;;;;;;;;;;;;;;;;5033022;28;19921;-54
2023/11/10 02:06:48;;;;;;;;;;;;;;;;;;5032906;28;20031;-54
2023/11/10 02:09:16;;;;;;;;;;;;;;;;;;5032706;28;20011;-56
2023/11/10 02:11:43;;;;;;;;;;;;;;;;;;5032683;28;19932;-58
2023/11/10 02:14:10;;;;;;;;;;;;;;;;;;5032473;28;19921;-53
2023/11/10 02:16:36;;;;;;;;;;;;;;;;;;5032633;28;20004;-52
2023/11/10 02:19:03;;;;;;;;;;;;;;;;;;5032621;28;20345;-53
2023/11/10 02:21:29;;;;;;;;;;;;;;;;;;5032572;28;19921;-56
2023/11/10 02:23:56;;;;;;;;;;;;;;;;;;5032578;28;20004;-52
2023/11/10 02:26:24;;;;;;;;;;;;;;;;;;5032811;28;19960;-52
2023/11/10 02:28:50;;;;;;;;;;;;;;;;;;5031674;28;20016;-52
2023/11/10 02:31:17;;;;;;;;;;;;;;;;;;5032541;28;20320;-53
2023/11/10 02:33:44;;;;;;;;;;;;;;;;;;5033095;28;19933;-59
2023/11/10 02:36:10;;;;;;;;;;;;;;;;;;5032814;28;20420;-53
2023/11/10 02:38:37;;;;;;;;;;;;;;;;;;5032499;28;20303;-53
2023/11/10 02:41:04;;;;;;;;;;;;;;;;;;5032693;28;19930;-57
2023/11/10 02:43:32;;;;;;;;;;;;;;;;;;5032196;28;19964;-55
2023/11/10 02:45:59;;;;;;;;;;;;;;;;;;5031957;28;19925;-54
2023/11/10 02:48:25;;;;;;;;;;;;;;;;;;5032061;28;20349;-55
2023/11/10 02:50:52;;;;;;;;;;;;;;;;;;5031961;28;20397;-55
2023/11/10 02:53:18;;;;;;;;;;;;;;;;;;5031506;28;19921;-57
2023/11/10 02:55:45;;;;;;;;;;;;;;;;;;5031511;28;19967;-56
2023/11/10 02:58:11;;;;;;;;;;;;;;;;;;5031989;28;19957;-51
2023/11/10 03:00:39;;;;;;;;;;;;;;;;;;5032157;28;19964;-53
2023/11/10 03:03:05;;;;;;;;;;;;;;;;;;5032187;28;20020;-56
2023/11/10 03:05:32;;;;;;;;;;;;;;;;;;5031665;28;19921;-56
2023/11/10 03:07:58;;;;;;;;;;;;;;;;;;5023710;28;20007;-55
2023/11/10 03:10:26;;;;;;;;;;;;;;;;;;5031269;28;19975;-57
2023/11/10 03:12:52;;;;;;;;;;;;;;;;;;5032017;28;19929;-54
2023/11/10 03:15:18;;;;;;;;;;;;;;;;;;5031152;28;20023;-52
2023/11/10 03:17:47;;;;;;;;;;;;;;;;;;5031685;28;20008;-53
2023/11/10 03:20:15;;;;;;;;;;;;;;;;;;5031275;28;20232;-56
2023/11/10 03:22:42;;;;;;;;;;;;;;;;;;5031989;28;20368;-57
2023/11/10 03:25:09;;;;;;;;;;;;;;;;;;5031355;28;20414;-52
2023/11/10 03:27:36;;;;;;;;;;;;;;;;;;5031161;28;20392;-56
2023/11/10 03:30:03;;;;;;;;;;;;;;;;;;5031541;28;19921;-53
2023/11/10 03:32:31;;;;;;;;;;;;;;;;;;5031558;28;19921;-53
2023/11/10 03:34:59;;;;;;;;;;;;;;;;;;5030980;28;19921;-57
2023/11/10 03:37:25;;;;;;;;;;;;;;;;;;5030709;28;19927;-55
2023/11/10 03:39:52;;;;;;;;;;;;;;;;;;5033213;28;20012;-55
2023/11/10 03:42:18;;;;;;;;;;;;;;;;;;5035118;28;19994;-56
2023/11/10 03:44:45;;;;;;;;;;;;;;;;;;5034838;28;19963;-56
2023/11/10 03:47:11;;;;;;;;;;;;;;;;;;5034295;28;19928;-55
2023/11/10 03:49:39;;;;;;;;;;;;;;;;;;5034280;28;19964;-56
2023/11/10 03:52:07;;;;;;;;;;;;;;;;;;5034729;28;19921;-55
2023/11/10 03:54:34;;;;;;;;;;;;;;;;;;5034908;28;19964;-55
2023/11/10 03:57:00;;;;;;;;;;;;;;;;;;5034489;28;19960;-55
2023/11/10 03:59:27;;;;;;;;;;;;;;;;;;5034686;28;20019;-56
2023/11/10 04:01:53;;;;;;;;;;;;;;;;;;5034499;28;20335;-55
2023/11/10 04:04:20;;;;;;;;;;;;;;;;;;5034835;28;20372;-54
2023/11/10 04:06:46;;;;;;;;;;;;;;;;;;5034158;28;19925;-56
2023/11/10 04:09:14;;;;;;;;;;;;;;;;;;5034949;28;20007;-52
2023/11/10 04:11:40;;;;;;;;;;;;;;;;;;5034454;28;19921;-55
2023/11/10 04:14:07;;;;;;;;;;;;;;;;;;5034120;28;19921;-54
2023/11/10 04:16:33;;;;;;;;;;;;;;;;;;5033986;28;19921;-56
2023/11/10 04:19:00;;;;;;;;;;;;;;;;;;5032594;28;19920;-55
2023/11/10 04:21:27;;;;;;;;;;;;;;;;;;5034406;28;20011;-56
2023/11/10 04:23:53;;;;;;;;;;;;;;;;;;5033304;28;19967;-55
2023/11/10 04:26:22;;;;;;;;;;;;;;;;;;5033393;28;19921;-53
2023/11/10 04:28:48;;;;;;;;;;;;;;;;;;5033708;28;20000;-56
2023/11/10 04:31:15;;;;;;;;;;;;;;;;;;5034581;28;20273;-55
2023/11/10 04:33:43;;;;;;;;;;;;;;;;;;5033828;28;19925;-55
2023/11/10 04:36:12;;;;;;;;;;;;;;;;;;5033582;28;20012;-52
2023/11/10 04:38:38;;;;;;;;;;;;;;;;;;5033616;28;19925;-55
2023/11/10 04:41:05;;;;;;;;;;;;;;;;;;5033705;28;19921;-53
2023/11/10 04:43:32;;;;;;;;;;;;;;;;;;5034127;28;19928;-53
2023/11/10 04:45:59;;;;;;;;;;;;;;;;;;5033751;28;19964;-56
2023/11/10 04:48:28;;;;;;;;;;;;;;;;;;5033532;28;19929;-52
2023/11/10 04:50:55;;;;;;;;;;;;;;;;;;5033021;28;19943;-52
2023/11/10 04:53:21;;;;;;;;;;;;;;;;;;5033822;28;19951;-52
2023/11/10 04:55:48;;;;;;;;;;;;;;;;;;5033811;28;20439;-55
2023/11/10 04:58:15;;;;;;;;;;;;;;;;;;5033494;28;19921;-56
2023/11/10 05:00:43;;;;;;;;;;;;;;;;;;5033176;28;19963;-54
2023/11/10 05:03:10;;;;;;;;;;;;;;;;;;5033759;28;20023;-54
2023/11/10 05:05:36;;;;;;;;;;;;;;;;;;5033562;28;20047;-55
2023/11/10 05:08:03;;;;;;;;;;;;;;;;;;5033466;28;20295;-52
2023/11/10 05:10:30;;;;;;;;;;;;;;;;;;5029360;28;19975;-53
2023/11/10 05:12:56;;;;;;;;;;;;;;;;;;5033314;28;19979;-55
2023/11/10 05:15:23;;;;;;;;;;;;;;;;;;5033393;28;20419;-54
2023/11/10 05:17:51;;;;;;;;;;;;;;;;;;5033250;28;19961;-55
2023/11/10 05:20:17;;;;;;;;;;;;;;;;;;5027466;28;19928;-55
2023/11/10 05:22:44;;;;;;;;;;;;;;;;;;5033094;28;20380;-53
2023/11/10 05:25:11;;;;;;;;;;;;;;;;;;5032970;28;19921;-54
2023/11/10 05:27:38;;;;;;;;;;;;;;;;;;5032669;28;20007;-55
2023/11/10 05:30:05;;;;;;;;;;;;;;;;;;5032419;28;20055;-53
2023/11/10 05:32:32;;;;;;;;;;;;;;;;;;5033120;28;19920;-56
2023/11/10 05:35:00;;;;;;;;;;;;;;;;;;5024888;28;20011;-55
2023/11/10 05:37:26;;;;;;;;;;;;;;;;;;5033127;28;20330;-54
2023/11/10 05:39:53;;;;;;;;;;;;;;;;;;5032379;28;19929;-56
2023/11/10 05:42:20;;;;;;;;;;;;;;;;;;5032679;28;19928;-57
2023/11/10 05:44:47;;;;;;;;;;;;;;;;;;5032435;28;19925;-56
2023/11/10 05:47:14;;;;;;;;;;;;;;;;;;5032536;28;20392;-54
2023/11/10 05:49:41;;;;;;;;;;;;;;;;;;5032034;28;19951;-54
2023/11/10 05:52:09;;;;;;;;;;;;;;;;;;5032437;28;19921;-52
2023/11/10 05:54:35;;;;;;;;;;;;;;;;;;5032126;28;20384;-54
2023/11/10 05:57:02;;;;;;;;;;;;;;;;;;5032487;28;19925;-52
2023/11/10 05:59:29;;;;;;;;;;;;;;;;;;5032405;28;19976;-55
2023/11/10 06:01:56;;;;;;;;;;;;;;;;;;5032449;28;19925;-52
2023/11/10 06:04:23;;;;;;;;;;;;;;;;;;5032543;28;19921;-54
2023/11/10 06:06:49;;;;;;;;;;;;;;;;;;5032244;28;20396;-51
2023/11/10 06:09:18;;;;;;;;;;;;;;;;;;5032503;28;19928;-56
2023/11/10 06:11:44;;;;;;;;;;;;;;;;;;5032538;28;20388;-57
2023/11/10 06:14:11;;;;;;;;;;;;;;;;;;5032959;28;20330;-57
2023/11/10 06:16:39;;;;;;;;;;;;;;;;;;5031984;28;19921;-54
2023/11/10 06:19:05;;;;;;;;;;;;;;;;;;5032500;28;20012;-55
2023/11/10 06:21:32;;;;;;;;;;;;;;;;;;5033167;28;19921;-57
2023/11/10 06:23:58;;;;;;;;;;;;;;;;;;5031419;28;19936;-54
2023/11/10 06:26:26;;;;;;;;;;;;;;;;;;5032199;28;19999;-53
2023/11/10 06:28:52;;;;;;;;;;;;;;;;;;5032542;28;19972;-56
2023/11/10 06:31:20;;;;;;;;;;;;;;;;;;5029502;28;19925;-53
2023/11/10 06:33:48;;;;;;;;;;;;;;;;;;5031615;28;20376;-57
2023/11/10 06:36:16;;;;;;;;;;;;;;;;;;5031909;28;19921;-58
2023/11/10 06:38:43;;;;;;;;;;;;;;;;;;5031904;28;19921;-56
2023/11/10 06:41:10;;;;;;;;;;;;;;;;;;5030487;28;19968;-56
2023/11/10 06:43:39;;;;;;;;;;;;;;;;;;5027764;28;19928;-54
2023/11/10 06:46:06;;;;;;;;;;;;;;;;;;5029615;28;19928;-53
2023/11/10 06:48:32;;;;;;;;;;;;;;;;;;5029473;28;19975;-52
2023/11/10 06:50:59;;;;;;;;;;;;;;;;;;5026111;28;20338;-56
2023/11/10 06:53:25;;;;;;;;;;;;;;;;;;5031980;28;19975;-53
2023/11/10 06:55:52;;;;;;;;;;;;;;;;;;5031820;28;20019;-54
2023/11/10 06:58:19;;;;;;;;;;;;;;;;;;5026792;28;20012;-55
2023/11/10 07:00:46;;;;;;;;;;;;;;;;;;5029796;28;19928;-56
2023/11/10 07:03:15;;;;;;;;;;;;;;;;;;5026131;28;19920;-58
2023/11/10 07:05:42;;;;;;;;;;;;;;;;;;5026768;28;20350;-58
2023/11/10 07:08:10;;;;;;;;;;;;;;;;;;5021723;28;19978;-52
2023/11/10 07:10:41;;;;;;;;;;;;;;;;;;5025457;28;19928;-52
2023/11/10 07:13:07;;;;;;;;;;;;;;;;;;5025193;28;19925;-56
2023/11/10 07:15:34;;;;;;;;;;;;;;;;;;5034813;28;20019;-56
2023/11/10 07:18:02;;;;;;;;;;;;;;;;;;5035836;28;20011;-55
2023/11/10 07:20:30;;;;;;;;;;;;;;;;;;5035959;28;19932;-57
2023/11/10 07:22:58;;;;;;;;;;;;;;;;;;5035596;28;20023;-56
2023/11/10 07:25:26;;;;;;;;;;;;;;;;;;5035852;28;19921;-56
2023/11/10 07:27:52;;;;;;;;;;;;;;;;;;5035819;28;20401;-56
2023/11/10 07:30:19;;;;;;;;;;;;;;;;;;5035651;28;20068;-56
2023/11/10 07:32:45;;;;;;;;;;;;;;;;;;5035905;28;19928;-57
2023/11/10 07:35:14;;;;;;;;;;;;;;;;;;5035810;28;19921;-56
2023/11/10 07:37:41;;;;;;;;;;;;;;;;;;5035250;28;20277;-53
2023/11/10 07:40:09;;;;;;;;;;;;;;;;;;5035787;28;19921;-54
2023/11/10 07:42:36;;;;;;;;;;;;;;;;;;5035889;28;19944;-54
2023/11/10 07:45:02;;;;;;;;;;;;;;;;;;5035504;28;19928;-55
2023/11/10 07:47:29;;;;;;;;;;;;;;;;;;5035501;28;19925;-57
2023/11/10 07:49:55;;;;;;;;;;;;;;;;;;5035471;28;20339;-54
2023/11/10 07:52:24;;;;;;;;;;;;;;;;;;5031778;28;20020;-55
2023/11/10 07:54:51;;;;;;;;;;;;;;;;;;5027722;28;20055;-56
2023/11/10 07:57:17;;;;;;;;;;;;;;;;;;5033691;28;19920;-55
2023/11/10 07:59:43;;;;;;;;;;;;;;;;;;5031940;28;19925;-56
2023/11/10 08:02:11;;;;;;;;;;;;;;;;;;5028626;28;20270;-56
2023/11/10 08:04:38;;;;;;;;;;;;;;;;;;5026588;28;19929;-56
2023/11/10 08:07:05;;;;;;;;;;;;;;;;;;5025167;28;20319;-55
2023/11/10 08:09:34;;;;;;;;;;;;;;;;;;5026212;28;19947;-55
2023/11/10 08:12:01;;;;;;;;;;;;;;;;;;5028547;28;19928;-56
2023/11/10 08:14:28;;;;;;;;;;;;;;;;;;5030908;28;19921;-56
2023/11/10 08:16:55;;;;;;;;;;;;;;;;;;5031871;28;19929;-57
2023/11/10 08:19:21;;;;;;;;;;;;;;;;;;5033066;28;20372;-55
2023/11/10 08:21:48;;;;;;;;;;;;;;;;;;5031603;28;19921;-53
2023/11/10 08:24:15;;;;;;;;;;;;;;;;;;5025658;28;20003;-56
2023/11/10 08:26:43;;;;;;;;;;;;;;;;;;5027597;28;19925;-55
2023/11/10 08:29:11;;;;;;;;;;;;;;;;;;5032418;28;19979;-57
2023/11/10 08:31:37;;;;;;;;;;;;;;;;;;5031242;28;20323;-56
2023/11/10 08:34:04;;;;;;;;;;;;;;;;;;5031289;28;20496;-55
2023/11/10 08:36:32;;;;;;;;;;;;;;;;;;5028806;28;19964;-58
2023/11/10 08:38:59;;;;;;;;;;;;;;;;;;5032690;28;19920;-59
2023/11/10 08:41:25;;;;;;;;;;;;;;;;;;5032430;28;20313;-57
2023/11/10 08:43:53;;;;;;;;;;;;;;;;;;5028394;28;19925;-52
2023/11/10 08:46:20;;;;;;;;;;;;;;;;;;5030615;28;19972;-55
2023/11/10 08:48:46;;;;;;;;;;;;;;;;;;5028739;28;19961;-54
2023/11/10 08:51:13;;;;;;;;;;;;;;;;;;5032430;28;20380;-54
2023/11/10 08:53:39;;;;;;;;;;;;;;;;;;5028820;28;20474;-58
2023/11/10 08:56:06;;;;;;;;;;;;;;;;;;5029960;28;20012;-57
2023/11/10 08:58:32;;;;;;;;;;;;;;;;;;5031954;28;19921;-57
2023/11/10 09:01:00;;;;;;;;;;;;;;;;;;5031698;28;19952;-53
2023/11/10 09:03:27;;;;;;;;;;;;;;;;;;5032497;28;19921;-55
2023/11/10 09:05:53;;;;;;;;;;;;;;;;;;5031591;28;19975;-56
2023/11/10 09:08:20;;;;;;;;;;;;;;;;;;5029837;28;19925;-56
2023/11/10 09:10:46;;;;;;;;;;;;;;;;;;5026476;28;20397;-54
2023/11/10 09:13:13;;;;;;;;;;;;;;;;;;5024138;28;19921;-55
2023/11/10 09:15:39;;;;;;;;;;;;;;;;;;5028447;28;19968;-54
2023/11/10 09:18:07;;;;;;;;;;;;;;;;;;5030078;28;20307;-56
2023/11/10 09:20:33;;;;;;;;;;;;;;;;;;5027256;28;19999;-56
2023/11/10 09:23:00;;;;;;;;;;;;;;;;;;5031774;28;19929;-53
2023/11/10 09:25:27;;;;;;;;;;;;;;;;;;5028352;28;19921;-56
2023/11/10 09:27:56;;;;;;;;;;;;;;;;;;5031457;28;20399;-56
2023/11/10 09:30:24;;;;;;;;;;;;;;;;;;5029470;28;19929;-56
2023/11/10 09:32:51;;;;;;;;;;;;;;;;;;5024666;28;20016;-55
2023/11/10 09:35:19;;;;;;;;;;;;;;;;;;5021927;28;20008;-52
2023/11/10 09:37:46;;;;;;;;;;;;;;;;;;5029582;28;19956;-56
2023/11/10 09:40:13;;;;;;;;;;;;;;;;;;5021576;28;19921;-55
2023/11/10 09:42:41;;;;;;;;;;;;;;;;;;5027864;28;19928;-56
2023/11/10 09:45:08;;;;;;;;;;;;;;;;;;5020067;28;19943;-56
2023/11/10 09:47:35;;;;;;;;;;;;;;;;;;5026654;28;20016;-55
2023/11/10 09:50:02;;;;;;;;;;;;;;;;;;5022870;28;20016;-62
2023/11/10 09:52:31;;;;;;;;;;;;;;;;;;5027252;28;19925;-58
2023/11/10 09:54:58;;;;;;;;;;;;;;;;;;5026390;28;20274;-64
2023/11/10 09:57:25;;;;;;;;;;;;;;;;;;5027994;28;19921;-57
2023/11/10 09:59:52;;;;;;;;;;;;;;;;;;5022024;28;19921;-66
2023/11/10 10:02:19;;;;;;;;;;;;;;;;;;5026333;28;20021;-62
2023/11/10 10:04:45;;;;;;;;;;;;;;;;;;5026536;28;19925;-53
2023/11/10 10:07:13;;;;;;;;;;;;;;;;;;5028008;28;19932;-65
2023/11/10 10:09:41;;;;;;;;;;;;;;;;;;5027864;28;19972;-53
2023/11/10 10:12:08;;;;;;;;;;;;;;;;;;5029109;28;20358;-53
2023/11/10 10:14:35;;;;;;;;;;;;;;;;;;5030355;28;20004;-54
2023/11/10 10:17:03;;;;;;;;;;;;;;;;;;5030050;28;19925;-55
2023/11/10 10:19:30;;;;;;;;;;;;;;;;;;5030812;28;20428;-53
2023/11/10 10:21:59;;;;;;;;;;;;;;;;;;5030988;28;20428;-55
2023/11/10 10:24:25;;;;;;;;;;;;;;;;;;5030709;28;19921;-53
2023/11/10 10:26:55;;;;;;;;;;;;;;;;;;5030186;28;19921;-56
2023/11/10 10:29:22;;;;;;;;;;;;;;;;;;5030044;28;19920;-55
2023/11/10 10:31:49;;;;;;;;;;;;;;;;;;5030224;28;19943;-54
2023/11/10 10:34:16;;;;;;;;;;;;;;;;;;5027104;28;19992;-53
2023/11/10 10:36:44;;;;;;;;;;;;;;;;;;5028292;28;20272;-56
2023/11/10 10:39:15;;;;;;;;;;;;;;;;;;5029790;28;19983;-55
2023/11/10 10:41:42;;;;;;;;;;;;;;;;;;5024817;28;19979;-56
2023/11/10 10:44:10;;;;;;;;;;;;;;;;;;5027987;28;20004;-56
2023/11/10 10:46:37;;;;;;;;;;;;;;;;;;5024654;28;20008;-56
2023/11/10 10:49:04;;;;;;;;;;;;;;;;;;5029374;28;20307;-57
2023/11/10 10:51:33;;;;;;;;;;;;;;;;;;5025653;28;19931;-56
2023/11/10 10:54:03;;;;;;;;;;;;;;;;;;5023222;28;19979;-54
2023/11/10 10:56:30;;;;;;;;;;;;;;;;;;5023162;28;19921;-53
2023/11/10 10:58:58;;;;;;;;;;;;;;;;;;5023942;28;20564;-54
2023/11/10 11:01:26;;;;;;;;;;;;;;;;;;5019484;28;19925;-56
2023/11/10 11:03:58;;;;;;;;;;;;;;;;;;5026649;28;19983;-55
2023/11/10 11:06:32;;;;;;;;;;;;;;;;;;5021205;28;20502;-57
2023/11/10 11:09:10;;;;;;;;;;;;;;;;;;5024603;28;20051;-57
2023/11/10 11:11:55;;;;;;;;;;;;;;;;;;5027548;28;19932;-56
2023/11/10 11:14:39;;;;;;;;;;;;;;;;;;5022603;28;19964;-54
2023/11/10 11:17:12;;;;;;;;;;;;;;;;;;5018536;28;20668;-53
2023/11/10 11:19:39;;;;;;;;;;;;;;;;;;5025495;28;20016;-53
2023/11/10 11:22:07;;;;;;;;;;;;;;;;;;5028021;28;19921;-54
2023/11/10 11:24:34;;;;;;;;;;;;;;;;;;5024488;28;19925;-55
2023/11/10 11:27:01;;;;;;;;;;;;;;;;;;5029078;28;19971;-53
2023/11/10 11:29:35;;;;;;;;;;;;;;;;;;5024250;28;19967;-53
2023/11/10 11:32:02;;;;;;;;;;;;;;;;;;5028484;28;19925;-55
2023/11/10 11:34:30;;;;;;;;;;;;;;;;;;5023347;28;19921;-56
2023/11/10 11:36:57;;;;;;;;;;;;;;;;;;5026360;28;19964;-53
2023/11/10 11:39:26;;;;;;;;;;;;;;;;;;5024609;28;20355;-54
2023/11/10 11:41:53;;;;;;;;;;;;;;;;;;5029263;28;19924;-57
2023/11/10 11:44:24;;;;;;;;;;;;;;;;;;5029268;28;19921;-54
2023/11/10 11:46:54;;;;;;;;;;;;;;;;;;5027857;28;19952;-53
2023/11/10 11:49:21;;;;;;;;;;;;;;;;;;5021541;28;19921;-54
2023/11/10 11:51:49;;;;;;;;;;;;;;;;;;5024214;28;20291;-54
2023/11/10 11:54:16;;;;;;;;;;;;;;;;;;5026192;28;19921;-55
2023/11/10 11:56:45;;;;;;;;;;;;;;;;;;5025150;28;20016;-58
2023/11/10 11:59:16;;;;;;;;;;;;;;;;;;5025046;28;19929;-57
2023/11/10 12:01:42;;;;;;;;;;;;;;;;;;5031714;28;20404;-56
2023/11/10 12:04:08;;;;;;;;;;;;;;;;;;5032598;28;20032;-54
2023/11/10 12:06:35;;;;;;;;;;;;;;;;;;5032492;28;20347;-57
2023/11/10 12:09:04;;;;;;;;;;;;;;;;;;5027793;28;19921;-55
2023/11/10 12:11:31;;;;;;;;;;;;;;;;;;5031087;28;19921;-55
2023/11/10 12:13:57;;;;;;;;;;;;;;;;;;5031693;28;19931;-57
2023/11/10 12:16:24;;;;;;;;;;;;;;;;;;5031916;28;20625;-57
2023/11/10 12:18:51;;;;;;;;;;;;;;;;;;5031465;28;19921;-56
2023/11/10 12:21:17;;;;;;;;;;;;;;;;;;5032642;28;19921;-54
2023/11/10 12:23:44;;;;;;;;;;;;;;;;;;5032015;28;19976;-57
2023/11/10 12:26:12;;;;;;;;;;;;;;;;;;5029641;28;19925;-55
2023/11/10 12:28:38;;;;;;;;;;;;;;;;;;5026267;28;20579;-52
2023/11/10 12:31:05;;;;;;;;;;;;;;;;;;5029325;28;19920;-55
2023/11/10 12:33:32;;;;;;;;;;;;;;;;;;5025383;28;19967;-53
2023/11/10 12:36:00;;;;;;;;;;;;;;;;;;5029001;28;19928;-51
2023/11/10 12:38:26;;;;;;;;;;;;;;;;;;5026682;28;20400;-54
2023/11/10 12:40:53;;;;;;;;;;;;;;;;;;5030011;28;20363;-57
2023/11/10 12:43:21;;;;;;;;;;;;;;;;;;5027750;28;19925;-53
2023/11/10 12:45:47;;;;;;;;;;;;;;;;;;5030620;28;20353;-53
2023/11/10 12:48:14;;;;;;;;;;;;;;;;;;5028830;28;19971;-55
2023/11/10 12:50:41;;;;;;;;;;;;;;;;;;5030051;28;20303;-52
2023/11/10 12:53:09;;;;;;;;;;;;;;;;;;5026749;28;20016;-56
2023/11/10 12:55:36;;;;;;;;;;;;;;;;;;5025009;28;19957;-52
2023/11/10 12:58:04;;;;;;;;;;;;;;;;;;5020500;28;19929;-57
2023/11/10 13:00:35;;;;;;;;;;;;;;;;;;5030702;28;20390;-54
2023/11/10 13:03:03;;;;;;;;;;;;;;;;;;5024938;28;19952;-52
2023/11/10 13:05:29;;;;;;;;;;;;;;;;;;5025349;28;19952;-56
2023/11/10 13:07:57;;;;;;;;;;;;;;;;;;5027915;28;20052;-51
2023/11/10 13:10:23;;;;;;;;;;;;;;;;;;5031516;28;20020;-55
2023/11/10 13:12:52;;;;;;;;;;;;;;;;;;5030855;28;19936;-55
2023/11/10 13:15:20;;;;;;;;;;;;;;;;;;5031842;28;20395;-53
2023/11/10 13:17:49;;;;;;;;;;;;;;;;;;5027601;28;19947;-53
2023/11/10 13:20:17;;;;;;;;;;;;;;;;;;5028451;28;19921;-53
2023/11/10 13:22:43;;;;;;;;;;;;;;;;;;5031533;28;20641;-52
2023/11/10 13:25:13;;;;;;;;;;;;;;;;;;5031478;28;19928;-51
2023/11/10 13:27:40;;;;;;;;;;;;;;;;;;5031423;28;19921;-54
2023/11/10 13:30:08;;;;;;;;;;;;;;;;;;5029627;28;20354;-53
2023/11/10 13:32:34;;;;;;;;;;;;;;;;;;5032080;28;20012;-55
2023/11/10 13:35:07;;;;;;;;;;;;;;;;;;5024580;28;20007;-54
2023/11/10 13:37:36;;;;;;;;;;;;;;;;;;5031542;28;20020;-54
2023/11/10 13:40:08;;;;;;;;;;;;;;;;;;5026637;28;20288;-53
2023/11/10 13:42:34;;;;;;;;;;;;;;;;;;5028725;28;19927;-57
2023/11/10 13:45:01;;;;;;;;;;;;;;;;;;5024705;28;19921;-54
2023/11/10 13:47:28;;;;;;;;;;;;;;;;;;5031584;28;19967;-55
2023/11/10 13:49:54;;;;;;;;;;;;;;;;;;5029333;28;19921;-52
2023/11/10 13:52:22;;;;;;;;;;;;;;;;;;5031684;28;19921;-52
2023/11/10 13:54:49;;;;;;;;;;;;;;;;;;5030512;28;20007;-55
2023/11/10 13:57:15;;;;;;;;;;;;;;;;;;5030870;28;20012;-53
2023/11/10 13:59:42;;;;;;;;;;;;;;;;;;5030949;28;19960;-65
2023/11/10 14:02:08;;;;;;;;;;;;;;;;;;5031735;28;19921;-59
2023/11/10 14:04:36;;;;;;;;;;;;;;;;;;5031299;28;19922;-62
2023/11/10 14:07:03;;;;;;;;;;;;;;;;;;5024817;28;20044;-61
2023/11/10 14:09:31;;;;;;;;;;;;;;;;;;5031756;28;19921;-63
2023/11/10 14:11:57;;;;;;;;;;;;;;;;;;5023151;28;19927;-51
2023/11/10 14:14:24;;;;;;;;;;;;;;;;;;5030492;28;19956;-54
2023/11/10 14:16:50;;;;;;;;;;;;;;;;;;5030180;28;19921;-52
2023/11/10 14:19:17;;;;;;;;;;;;;;;;;;5030943;28;19927;-52
2023/11/10 14:21:44;;;;;;;;;;;;;;;;;;5029895;28;20004;-52
2023/11/10 14:24:10;;;;;;;;;;;;;;;;;;5030688;28;20011;-53
2023/11/10 14:26:38;;;;;;;;;;;;;;;;;;5030177;28;20452;-51
2023/11/10 14:29:06;;;;;;;;;;;;;;;;;;5030988;28;19964;-55
2023/11/10 14:31:32;;;;;;;;;;;;;;;;;;5029845;28;20438;-52
2023/11/10 14:34:00;;;;;;;;;;;;;;;;;;5029823;28;20012;-54
2023/11/10 14:36:27;;;;;;;;;;;;;;;;;;5030203;28;20389;-53
2023/11/10 14:38:53;;;;;;;;;;;;;;;;;;5030365;28;19921;-53
2023/11/10 14:41:20;;;;;;;;;;;;;;;;;;5030976;28;19929;-54
2023/11/10 14:43:49;;;;;;;;;;;;;;;;;;5030144;28;20361;-54
2023/11/10 14:46:15;;;;;;;;;;;;;;;;;;5030057;28;19921;-52
2023/11/10 14:48:45;;;;;;;;;;;;;;;;;;5030444;28;19920;-53
2023/11/10 14:51:18;;;;;;;;;;;;;;;;;;5030309;28;19944;-52
2023/11/10 14:53:44;;;;;;;;;;;;;;;;;;5029875;28;19927;-55
2023/11/10 14:56:11;;;;;;;;;;;;;;;;;;5029667;28;19960;-52
2023/11/10 14:58:38;;;;;;;;;;;;;;;;;;5030053;28;19922;-52
2023/11/10 15:01:08;;;;;;;;;;;;;;;;;;5030398;28;20325;-53
2023/11/10 15:03:34;;;;;;;;;;;;;;;;;;5030094;28;19921;-54
2023/11/10 15:06:01;;;;;;;;;;;;;;;;;;5029744;28;19928;-53
2023/11/10 15:08:27;;;;;;;;;;;;;;;;;;5030540;28;19983;-50
2023/11/10 15:10:54;;;;;;;;;;;;;;;;;;5029922;28;19975;-51
2023/11/10 15:13:20;;;;;;;;;;;;;;;;;;5030096;28;20303;-54
2023/11/10 15:15:47;;;;;;;;;;;;;;;;;;5030505;28;19925;-54
2023/11/10 15:18:17;;;;;;;;;;;;;;;;;;5030725;28;19925;-56
2023/11/10 15:20:43;;;;;;;;;;;;;;;;;;5022097;28;19921;-55
2023/11/10 15:23:11;;;;;;;;;;;;;;;;;;5030194;28;19921;-51
2023/11/10 15:25:38;;;;;;;;;;;;;;;;;;5030685;28;19921;-55
2023/11/10 15:28:05;;;;;;;;;;;;;;;;;;5030115;28;19932;-55
2023/11/10 15:30:32;;;;;;;;;;;;;;;;;;5029869;28;19921;-54
2023/11/10 15:33:01;;;;;;;;;;;;;;;;;;5030001;28;20291;-53
2023/11/10 15:35:29;;;;;;;;;;;;;;;;;;5031499;28;19920;-54
2023/11/10 15:37:56;;;;;;;;;;;;;;;;;;5033438;28;20028;-52
2023/11/10 15:40:23;;;;;;;;;;;;;;;;;;5033950;28;19935;-53
2023/11/10 15:42:50;;;;;;;;;;;;;;;;;;5033481;28;19928;-53
2023/11/10 15:45:16;;;;;;;;;;;;;;;;;;5033551;28;19921;-54
2023/11/10 15:47:43;;;;;;;;;;;;;;;;;;5033639;28;19921;-53
2023/11/10 15:50:10;;;;;;;;;;;;;;;;;;5033487;28;19921;-52
2023/11/10 15:52:37;;;;;;;;;;;;;;;;;;5033733;28;19971;-54
2023/11/10 15:55:08;;;;;;;;;;;;;;;;;;5025442;28;19968;-51
2023/11/10 15:57:34;;;;;;;;;;;;;;;;;;5033283;28;19925;-55
2023/11/10 16:00:00;;;;;;;;;;;;;;;;;;5033398;28;20008;-53
2023/11/10 16:02:27;;;;;;;;;;;;;;;;;;5033197;28;20442;-54
2023/11/10 16:04:55;;;;;;;;;;;;;;;;;;5031142;28;20016;-55
2023/11/10 16:07:21;;;;;;;;;;;;;;;;;;5023051;28;19944;-54
2023/11/10 16:09:49;;;;;;;;;;;;;;;;;;5031011;28;20471;-54
2023/11/10 16:12:16;;;;;;;;;;;;;;;;;;5032866;28;20411;-54
2023/11/10 16:14:43;;;;;;;;;;;;;;;;;;5032585;28;19921;-54
2023/11/10 16:17:10;;;;;;;;;;;;;;;;;;5032725;28;19952;-52
2023/11/10 16:19:37;;;;;;;;;;;;;;;;;;5032729;28;20009;-52
2023/11/10 16:22:04;;;;;;;;;;;;;;;;;;5032460;28;20365;-55
2023/11/10 16:24:30;;;;;;;;;;;;;;;;;;5032771;28;19927;-52
2023/11/10 16:26:58;;;;;;;;;;;;;;;;;;5032417;28;20435;-53
2023/11/10 16:29:25;;;;;;;;;;;;;;;;;;5032986;28;20269;-57
2023/11/10 16:31:52;;;;;;;;;;;;;;;;;;5032634;28;19979;-54
2023/11/10 16:34:19;;;;;;;;;;;;;;;;;;5033018;28;20354;-52
2023/11/10 16:36:46;;;;;;;;;;;;;;;;;;5032292;28;19927;-56
2023/11/10 16:39:13;;;;;;;;;;;;;;;;;;5032887;28;19964;-53
2023/11/10 16:41:44;;;;;;;;;;;;;;;;;;5032744;28;19943;-54
2023/11/10 16:44:12;;;;;;;;;;;;;;;;;;5025245;28;19921;-54
2023/11/10 16:46:39;;;;;;;;;;;;;;;;;;5031449;28;20265;-56